sensor_id;sensor_type;location;lat;lon;timestamp;P1;durP1;ratioP1;P2;durP2;ratioP2
21192;SDS011;10754;51.106;7.164;2023-04-09T00:01:57;19.63;;;17.63;;
21192;SDS011;10754;51.106;7.164;2023-04-09T00:04:23;19.20;;;17.40;;
21192;SDS011;10754;51.106;7.164;2023-04-09T00:06:48;20.87;;;18.83;;
21192;SDS011;10754;51.106;7.164;2023-04-09T00:09:14;20.00;;;18.10;;
21192;SDS011;10754;51.106;7.164;2023-04-09T00:11:40;20.13;;;18.20;;
21192;SDS011;10754;51.106;7.164;2023-04-09T00:14:06;19.63;;;17.67;;
21192;SDS011;10754;51.106;7.164;2023-04-09T00:16:31;20.03;;;18.13;;
21192;SDS011;10754;51.106;7.164;2023-04-09T00:18:57;19.17;;;17.27;;
21192;SDS011;10754;51.106;7.164;2023-04-09T00:21:22;19.27;;;17.37;;
21192;SDS011;10754;51.106;7.164;2023-04-09T00:23:48;19.53;;;17.63;;
21192;SDS011;10754;51.106;7.164;2023-04-09T00:26:14;20.33;;;18.33;;
21192;SDS011;10754;51.106;7.164;2023-04-09T00:28:39;19.40;;;17.43;;
21192;SDS011;10754;51.106;7.164;2023-04-09T00:31:05;20.43;;;18.40;;
21192;SDS011;10754;51.106;7.164;2023-04-09T00:33:30;19.17;;;17.30;;
21192;SDS011;10754;51.106;7.164;2023-04-09T00:35:56;19.47;;;17.47;;
21192;SDS011;10754;51.106;7.164;2023-04-09T00:38:21;18.40;;;16.60;;
21192;SDS011;10754;51.106;7.164;2023-04-09T00:40:48;20.30;;;18.30;;
21192;SDS011;10754;51.106;7.164;2023-04-09T00:43:14;18.77;;;17.00;;
21192;SDS011;10754;51.106;7.164;2023-04-09T00:45:40;19.53;;;17.63;;
21192;SDS011;10754;51.106;7.164;2023-04-09T00:48:06;18.67;;;16.77;;
21192;SDS011;10754;51.106;7.164;2023-04-09T00:50:32;19.03;;;17.03;;
21192;SDS011;10754;51.106;7.164;2023-04-09T00:52:58;18.53;;;16.80;;
21192;SDS011;10754;51.106;7.164;2023-04-09T00:55:24;18.30;;;16.47;;
21192;SDS011;10754;51.106;7.164;2023-04-09T00:57:49;18.97;;;17.17;;
21192;SDS011;10754;51.106;7.164;2023-04-09T01:00:15;18.40;;;16.70;;
21192;SDS011;10754;51.106;7.164;2023-04-09T01:02:40;17.83;;;16.03;;
21192;SDS011;10754;51.106;7.164;2023-04-09T01:05:07;17.93;;;16.23;;
21192;SDS011;10754;51.106;7.164;2023-04-09T01:13:41;17.27;;;15.57;;
21192;SDS011;10754;51.106;7.164;2023-04-09T01:16:16;17.03;;;15.33;;
21192;SDS011;10754;51.106;7.164;2023-04-09T01:18:51;17.33;;;15.63;;
21192;SDS011;10754;51.106;7.164;2023-04-09T01:21:24;17.37;;;15.63;;
21192;SDS011;10754;51.106;7.164;2023-04-09T01:29:14;18.17;;;16.43;;
21192;SDS011;10754;51.106;7.164;2023-04-09T01:31:41;17.00;;;15.27;;
21192;SDS011;10754;51.106;7.164;2023-04-09T01:34:08;18.97;;;17.07;;
21192;SDS011;10754;51.106;7.164;2023-04-09T01:36:34;16.40;;;14.90;;
21192;SDS011;10754;51.106;7.164;2023-04-09T01:39:02;18.70;;;16.90;;
21192;SDS011;10754;51.106;7.164;2023-04-09T01:41:28;17.43;;;15.73;;
21192;SDS011;10754;51.106;7.164;2023-04-09T01:43:56;16.00;;;14.40;;
21192;SDS011;10754;51.106;7.164;2023-04-09T01:46:25;16.80;;;15.10;;
21192;SDS011;10754;51.106;7.164;2023-04-09T01:48:51;18.00;;;16.17;;
21192;SDS011;10754;51.106;7.164;2023-04-09T01:51:17;17.00;;;15.30;;
21192;SDS011;10754;51.106;7.164;2023-04-09T01:53:43;16.43;;;14.83;;
21192;SDS011;10754;51.106;7.164;2023-04-09T01:56:09;16.70;;;15.10;;
21192;SDS011;10754;51.106;7.164;2023-04-09T01:58:34;17.63;;;15.93;;
21192;SDS011;10754;51.106;7.164;2023-04-09T02:01:11;17.73;;;15.93;;
21192;SDS011;10754;51.106;7.164;2023-04-09T02:06:26;16.53;;;14.83;;
21192;SDS011;10754;51.106;7.164;2023-04-09T02:09:00;16.50;;;14.80;;
21192;SDS011;10754;51.106;7.164;2023-04-09T02:11:28;16.97;;;15.27;;
21192;SDS011;10754;51.106;7.164;2023-04-09T02:13:56;16.33;;;14.77;;
21192;SDS011;10754;51.106;7.164;2023-04-09T02:16:22;16.93;;;15.30;;
21192;SDS011;10754;51.106;7.164;2023-04-09T02:18:52;18.70;;;15.47;;
21192;SDS011;10754;51.106;7.164;2023-04-09T02:21:20;18.87;;;16.97;;
21192;SDS011;10754;51.106;7.164;2023-04-09T02:23:46;15.57;;;14.00;;
21192;SDS011;10754;51.106;7.164;2023-04-09T02:26:12;17.63;;;15.87;;
21192;SDS011;10754;51.106;7.164;2023-04-09T02:28:37;16.97;;;15.37;;
21192;SDS011;10754;51.106;7.164;2023-04-09T02:31:03;16.67;;;14.97;;
21192;SDS011;10754;51.106;7.164;2023-04-09T02:33:28;16.03;;;14.43;;
21192;SDS011;10754;51.106;7.164;2023-04-09T02:35:54;15.87;;;14.37;;
21192;SDS011;10754;51.106;7.164;2023-04-09T02:38:19;16.07;;;14.57;;
21192;SDS011;10754;51.106;7.164;2023-04-09T02:40:45;15.63;;;14.13;;
21192;SDS011;10754;51.106;7.164;2023-04-09T02:43:10;16.97;;;14.80;;
21192;SDS011;10754;51.106;7.164;2023-04-09T02:45:36;15.90;;;14.20;;
21192;SDS011;10754;51.106;7.164;2023-04-09T02:48:01;16.43;;;14.93;;
21192;SDS011;10754;51.106;7.164;2023-04-09T02:50:27;15.77;;;14.27;;
21192;SDS011;10754;51.106;7.164;2023-04-09T02:52:53;15.30;;;13.70;;
21192;SDS011;10754;51.106;7.164;2023-04-09T02:55:18;15.90;;;14.40;;
21192;SDS011;10754;51.106;7.164;2023-04-09T02:57:44;14.57;;;13.20;;
21192;SDS011;10754;51.106;7.164;2023-04-09T03:00:10;14.50;;;13.10;;
21192;SDS011;10754;51.106;7.164;2023-04-09T03:02:36;16.30;;;14.57;;
21192;SDS011;10754;51.106;7.164;2023-04-09T03:05:02;14.43;;;13.07;;
21192;SDS011;10754;51.106;7.164;2023-04-09T03:07:28;15.40;;;13.97;;
21192;SDS011;10754;51.106;7.164;2023-04-09T03:09:53;16.57;;;14.87;;
21192;SDS011;10754;51.106;7.164;2023-04-09T03:12:19;14.57;;;13.07;;
21192;SDS011;10754;51.106;7.164;2023-04-09T03:14:44;15.37;;;13.87;;
21192;SDS011;10754;51.106;7.164;2023-04-09T03:17:10;13.40;;;12.10;;
21192;SDS011;10754;51.106;7.164;2023-04-09T03:19:35;16.00;;;14.40;;
21192;SDS011;10754;51.106;7.164;2023-04-09T03:22:01;15.10;;;13.70;;
21192;SDS011;10754;51.106;7.164;2023-04-09T03:24:26;16.00;;;14.40;;
21192;SDS011;10754;51.106;7.164;2023-04-09T03:26:52;13.80;;;12.50;;
21192;SDS011;10754;51.106;7.164;2023-04-09T03:29:17;14.73;;;13.23;;
21192;SDS011;10754;51.106;7.164;2023-04-09T03:31:43;14.40;;;13.10;;
21192;SDS011;10754;51.106;7.164;2023-04-09T03:34:09;15.17;;;13.67;;
21192;SDS011;10754;51.106;7.164;2023-04-09T03:36:34;15.47;;;13.87;;
21192;SDS011;10754;51.106;7.164;2023-04-09T03:39:00;15.87;;;14.17;;
21192;SDS011;10754;51.106;7.164;2023-04-09T03:41:25;16.77;;;15.03;;
21192;SDS011;10754;51.106;7.164;2023-04-09T03:43:51;15.67;;;14.13;;
21192;SDS011;10754;51.106;7.164;2023-04-09T03:46:17;15.87;;;14.37;;
21192;SDS011;10754;51.106;7.164;2023-04-09T03:48:42;15.93;;;14.30;;
21192;SDS011;10754;51.106;7.164;2023-04-09T03:51:12;16.37;;;14.77;;
21192;SDS011;10754;51.106;7.164;2023-04-09T03:53:39;17.57;;;15.10;;
21192;SDS011;10754;51.106;7.164;2023-04-09T03:56:06;15.43;;;13.83;;
21192;SDS011;10754;51.106;7.164;2023-04-09T03:58:32;14.60;;;13.10;;
21192;SDS011;10754;51.106;7.164;2023-04-09T04:00:57;15.17;;;13.03;;
21192;SDS011;10754;51.106;7.164;2023-04-09T04:03:23;14.77;;;13.27;;
21192;SDS011;10754;51.106;7.164;2023-04-09T04:05:48;14.97;;;13.47;;
21192;SDS011;10754;51.106;7.164;2023-04-09T04:08:14;15.07;;;13.47;;
21192;SDS011;10754;51.106;7.164;2023-04-09T04:10:40;14.50;;;13.00;;
21192;SDS011;10754;51.106;7.164;2023-04-09T04:13:05;15.53;;;13.93;;
21192;SDS011;10754;51.106;7.164;2023-04-09T04:15:32;15.47;;;13.83;;
21192;SDS011;10754;51.106;7.164;2023-04-09T04:17:58;15.00;;;13.50;;
21192;SDS011;10754;51.106;7.164;2023-04-09T04:20:24;14.30;;;12.90;;
21192;SDS011;10754;51.106;7.164;2023-04-09T04:22:50;14.20;;;12.70;;
21192;SDS011;10754;51.106;7.164;2023-04-09T04:25:16;14.50;;;13.20;;
21192;SDS011;10754;51.106;7.164;2023-04-09T04:27:41;13.93;;;12.53;;
21192;SDS011;10754;51.106;7.164;2023-04-09T04:30:07;13.97;;;12.37;;
21192;SDS011;10754;51.106;7.164;2023-04-09T04:32:33;13.77;;;12.37;;
21192;SDS011;10754;51.106;7.164;2023-04-09T04:34:58;12.10;;;10.90;;
21192;SDS011;10754;51.106;7.164;2023-04-09T04:37:24;12.07;;;10.87;;
21192;SDS011;10754;51.106;7.164;2023-04-09T04:39:50;12.60;;;11.30;;
21192;SDS011;10754;51.106;7.164;2023-04-09T04:42:15;12.17;;;10.97;;
21192;SDS011;10754;51.106;7.164;2023-04-09T04:44:41;11.13;;;10.03;;
21192;SDS011;10754;51.106;7.164;2023-04-09T04:47:07;11.73;;;10.60;;
21192;SDS011;10754;51.106;7.164;2023-04-09T04:49:33;12.23;;;11.00;;
21192;SDS011;10754;51.106;7.164;2023-04-09T04:51:58;12.53;;;11.23;;
21192;SDS011;10754;51.106;7.164;2023-04-09T04:54:24;11.93;;;10.73;;
21192;SDS011;10754;51.106;7.164;2023-04-09T04:56:49;11.83;;;10.63;;
21192;SDS011;10754;51.106;7.164;2023-04-09T04:59:15;11.40;;;10.20;;
21192;SDS011;10754;51.106;7.164;2023-04-09T05:01:40;11.93;;;10.73;;
21192;SDS011;10754;51.106;7.164;2023-04-09T05:04:05;10.50;;;9.40;;
21192;SDS011;10754;51.106;7.164;2023-04-09T05:06:31;13.67;;;9.57;;
21192;SDS011;10754;51.106;7.164;2023-04-09T05:08:57;10.97;;;9.80;;
21192;SDS011;10754;51.106;7.164;2023-04-09T05:11:23;10.53;;;9.50;;
21192;SDS011;10754;51.106;7.164;2023-04-09T05:13:49;10.47;;;9.40;;
21192;SDS011;10754;51.106;7.164;2023-04-09T05:16:15;9.97;;;9.00;;
21192;SDS011;10754;51.106;7.164;2023-04-09T05:18:42;10.83;;;9.73;;
21192;SDS011;10754;51.106;7.164;2023-04-09T05:21:08;9.97;;;9.07;;
21192;SDS011;10754;51.106;7.164;2023-04-09T05:23:33;12.43;;;8.90;;
21192;SDS011;10754;51.106;7.164;2023-04-09T05:25:58;9.10;;;8.20;;
21192;SDS011;10754;51.106;7.164;2023-04-09T05:28:24;10.47;;;9.37;;
21192;SDS011;10754;51.106;7.164;2023-04-09T05:30:50;11.00;;;9.37;;
21192;SDS011;10754;51.106;7.164;2023-04-09T05:33:15;10.53;;;9.00;;
21192;SDS011;10754;51.106;7.164;2023-04-09T05:35:41;9.43;;;8.53;;
21192;SDS011;10754;51.106;7.164;2023-04-09T05:38:06;9.83;;;8.83;;
21192;SDS011;10754;51.106;7.164;2023-04-09T05:40:32;9.50;;;8.50;;
21192;SDS011;10754;51.106;7.164;2023-04-09T05:42:57;10.10;;;9.00;;
21192;SDS011;10754;51.106;7.164;2023-04-09T05:45:23;9.67;;;8.77;;
21192;SDS011;10754;51.106;7.164;2023-04-09T05:47:48;9.47;;;8.57;;
21192;SDS011;10754;51.106;7.164;2023-04-09T05:50:14;9.87;;;8.87;;
21192;SDS011;10754;51.106;7.164;2023-04-09T05:52:39;10.73;;;9.73;;
21192;SDS011;10754;51.106;7.164;2023-04-09T05:55:05;10.20;;;9.17;;
21192;SDS011;10754;51.106;7.164;2023-04-09T05:57:31;10.43;;;9.40;;
21192;SDS011;10754;51.106;7.164;2023-04-09T05:59:56;10.20;;;9.20;;
21192;SDS011;10754;51.106;7.164;2023-04-09T06:02:22;10.83;;;9.73;;
21192;SDS011;10754;51.106;7.164;2023-04-09T06:04:49;10.67;;;9.67;;
21192;SDS011;10754;51.106;7.164;2023-04-09T06:07:14;10.77;;;9.77;;
21192;SDS011;10754;51.106;7.164;2023-04-09T06:09:40;11.13;;;10.03;;
21192;SDS011;10754;51.106;7.164;2023-04-09T06:12:08;10.37;;;9.37;;
21192;SDS011;10754;51.106;7.164;2023-04-09T06:14:33;10.37;;;9.37;;
21192;SDS011;10754;51.106;7.164;2023-04-09T06:16:59;10.67;;;9.57;;
21192;SDS011;10754;51.106;7.164;2023-04-09T06:19:24;10.60;;;9.60;;
21192;SDS011;10754;51.106;7.164;2023-04-09T06:21:50;10.37;;;9.27;;
21192;SDS011;10754;51.106;7.164;2023-04-09T06:24:16;10.80;;;9.73;;
21192;SDS011;10754;51.106;7.164;2023-04-09T06:26:41;10.40;;;9.40;;
21192;SDS011;10754;51.106;7.164;2023-04-09T06:29:07;10.70;;;9.60;;
21192;SDS011;10754;51.106;7.164;2023-04-09T06:31:32;10.80;;;9.70;;
21192;SDS011;10754;51.106;7.164;2023-04-09T06:33:58;11.20;;;10.03;;
21192;SDS011;10754;51.106;7.164;2023-04-09T06:36:23;10.30;;;9.30;;
21192;SDS011;10754;51.106;7.164;2023-04-09T06:38:50;10.50;;;9.40;;
21192;SDS011;10754;51.106;7.164;2023-04-09T06:41:16;11.07;;;9.83;;
21192;SDS011;10754;51.106;7.164;2023-04-09T06:43:45;10.97;;;9.50;;
21192;SDS011;10754;51.106;7.164;2023-04-09T06:46:10;9.30;;;8.37;;
21192;SDS011;10754;51.106;7.164;2023-04-09T06:48:37;10.53;;;9.43;;
21192;SDS011;10754;51.106;7.164;2023-04-09T06:51:02;10.40;;;9.30;;
21192;SDS011;10754;51.106;7.164;2023-04-09T06:53:30;11.60;;;10.20;;
21192;SDS011;10754;51.106;7.164;2023-04-09T06:55:55;11.17;;;9.97;;
21192;SDS011;10754;51.106;7.164;2023-04-09T06:58:21;10.37;;;9.33;;
21192;SDS011;10754;51.106;7.164;2023-04-09T07:00:46;11.30;;;10.10;;
21192;SDS011;10754;51.106;7.164;2023-04-09T07:03:13;11.07;;;9.53;;
21192;SDS011;10754;51.106;7.164;2023-04-09T07:05:38;11.60;;;10.40;;
21192;SDS011;10754;51.106;7.164;2023-04-09T07:08:04;12.07;;;10.77;;
21192;SDS011;10754;51.106;7.164;2023-04-09T07:10:29;11.53;;;10.33;;
21192;SDS011;10754;51.106;7.164;2023-04-09T07:12:55;11.07;;;9.97;;
21192;SDS011;10754;51.106;7.164;2023-04-09T07:15:20;9.53;;;8.53;;
21192;SDS011;10754;51.106;7.164;2023-04-09T07:17:46;9.90;;;8.90;;
21192;SDS011;10754;51.106;7.164;2023-04-09T07:20:11;12.07;;;10.53;;
21192;SDS011;10754;51.106;7.164;2023-04-09T07:22:37;11.63;;;10.43;;
21192;SDS011;10754;51.106;7.164;2023-04-09T07:25:03;10.27;;;9.27;;
21192;SDS011;10754;51.106;7.164;2023-04-09T07:27:29;9.93;;;9.03;;
21192;SDS011;10754;51.106;7.164;2023-04-09T07:29:55;10.10;;;9.10;;
21192;SDS011;10754;51.106;7.164;2023-04-09T07:32:22;9.80;;;8.70;;
21192;SDS011;10754;51.106;7.164;2023-04-09T07:34:50;10.20;;;9.27;;
21192;SDS011;10754;51.106;7.164;2023-04-09T07:37:16;9.83;;;8.83;;
21192;SDS011;10754;51.106;7.164;2023-04-09T07:39:42;9.30;;;8.40;;
21192;SDS011;10754;51.106;7.164;2023-04-09T07:42:07;9.83;;;8.83;;
21192;SDS011;10754;51.106;7.164;2023-04-09T07:44:33;10.03;;;9.10;;
21192;SDS011;10754;51.106;7.164;2023-04-09T07:47:00;10.10;;;9.10;;
21192;SDS011;10754;51.106;7.164;2023-04-09T07:49:26;10.00;;;9.00;;
21192;SDS011;10754;51.106;7.164;2023-04-09T07:51:52;9.37;;;8.37;;
21192;SDS011;10754;51.106;7.164;2023-04-09T07:54:17;8.57;;;7.77;;
21192;SDS011;10754;51.106;7.164;2023-04-09T07:56:45;9.20;;;8.30;;
21192;SDS011;10754;51.106;7.164;2023-04-09T07:59:11;8.67;;;7.73;;
21192;SDS011;10754;51.106;7.164;2023-04-09T08:01:36;8.80;;;8.00;;
21192;SDS011;10754;51.106;7.164;2023-04-09T08:04:02;9.00;;;8.20;;
21192;SDS011;10754;51.106;7.164;2023-04-09T08:06:27;9.00;;;7.77;;
21192;SDS011;10754;51.106;7.164;2023-04-09T08:08:53;8.67;;;7.77;;
21192;SDS011;10754;51.106;7.164;2023-04-09T08:11:18;8.13;;;7.33;;
21192;SDS011;10754;51.106;7.164;2023-04-09T08:13:49;8.07;;;7.27;;
21192;SDS011;10754;51.106;7.164;2023-04-09T08:16:18;7.93;;;7.23;;
21192;SDS011;10754;51.106;7.164;2023-04-09T08:18:45;8.00;;;7.20;;
21192;SDS011;10754;51.106;7.164;2023-04-09T08:21:11;8.50;;;7.70;;
21192;SDS011;10754;51.106;7.164;2023-04-09T08:23:37;7.97;;;7.17;;
21192;SDS011;10754;51.106;7.164;2023-04-09T08:26:02;7.90;;;7.10;;
21192;SDS011;10754;51.106;7.164;2023-04-09T08:28:28;7.50;;;6.80;;
21192;SDS011;10754;51.106;7.164;2023-04-09T08:30:54;7.87;;;7.10;;
21192;SDS011;10754;51.106;7.164;2023-04-09T08:33:19;7.87;;;7.07;;
21192;SDS011;10754;51.106;7.164;2023-04-09T08:35:45;7.40;;;6.70;;
21192;SDS011;10754;51.106;7.164;2023-04-09T08:38:10;7.40;;;6.40;;
21192;SDS011;10754;51.106;7.164;2023-04-09T08:40:36;6.70;;;6.10;;
21192;SDS011;10754;51.106;7.164;2023-04-09T08:43:03;7.03;;;6.43;;
21192;SDS011;10754;51.106;7.164;2023-04-09T08:45:31;6.90;;;6.25;;
21192;SDS011;10754;51.106;7.164;2023-04-09T08:47:56;6.25;;;5.65;;
21192;SDS011;10754;51.106;7.164;2023-04-09T08:50:27;5.70;;;5.20;;
21192;SDS011;10754;51.106;7.164;2023-04-09T08:52:56;5.77;;;5.27;;
21192;SDS011;10754;51.106;7.164;2023-04-09T08:55:23;4.67;;;4.20;;
21192;SDS011;10754;51.106;7.164;2023-04-09T08:57:48;6.03;;;5.38;;
21192;SDS011;10754;51.106;7.164;2023-04-09T09:00:14;4.25;;;3.92;;
21192;SDS011;10754;51.106;7.164;2023-04-09T09:03:00;4.95;;;4.53;;
21192;SDS011;10754;51.106;7.164;2023-04-09T09:05:40;4.57;;;3.30;;
21192;SDS011;10754;51.106;7.164;2023-04-09T09:08:10;4.43;;;4.03;;
21192;SDS011;10754;51.106;7.164;2023-04-09T09:10:41;3.47;;;3.17;;
21192;SDS011;10754;51.106;7.164;2023-04-09T09:13:21;4.67;;;4.27;;
21192;SDS011;10754;51.106;7.164;2023-04-09T09:15:51;4.55;;;4.15;;
21192;SDS011;10754;51.106;7.164;2023-04-09T09:18:39;4.88;;;4.45;;
21192;SDS011;10754;51.106;7.164;2023-04-09T09:21:13;5.00;;;4.50;;
21192;SDS011;10754;51.106;7.164;2023-04-09T09:23:40;6.00;;;5.50;;
21192;SDS011;10754;51.106;7.164;2023-04-09T09:26:16;4.60;;;4.20;;
21192;SDS011;10754;51.106;7.164;2023-04-09T09:28:44;5.47;;;4.97;;
21192;SDS011;10754;51.106;7.164;2023-04-09T09:31:11;4.97;;;4.47;;
21192;SDS011;10754;51.106;7.164;2023-04-09T09:33:37;5.22;;;4.82;;
21192;SDS011;10754;51.106;7.164;2023-04-09T09:36:02;5.97;;;4.88;;
21192;SDS011;10754;51.106;7.164;2023-04-09T09:38:28;5.50;;;5.00;;
21192;SDS011;10754;51.106;7.164;2023-04-09T09:40:55;5.70;;;5.20;;
21192;SDS011;10754;51.106;7.164;2023-04-09T09:43:20;5.40;;;4.90;;
21192;SDS011;10754;51.106;7.164;2023-04-09T09:45:46;5.30;;;4.80;;
21192;SDS011;10754;51.106;7.164;2023-04-09T09:48:13;5.07;;;4.57;;
21192;SDS011;10754;51.106;7.164;2023-04-09T09:50:39;4.90;;;4.40;;
21192;SDS011;10754;51.106;7.164;2023-04-09T09:53:06;5.15;;;4.65;;
21192;SDS011;10754;51.106;7.164;2023-04-09T09:55:33;4.38;;;3.97;;
21192;SDS011;10754;51.106;7.164;2023-04-09T09:58:06;4.97;;;4.47;;
21192;SDS011;10754;51.106;7.164;2023-04-09T10:00:36;4.47;;;4.07;;
21192;SDS011;10754;51.106;7.164;2023-04-09T10:03:09;4.70;;;4.30;;
21192;SDS011;10754;51.106;7.164;2023-04-09T10:05:38;4.57;;;4.18;;
21192;SDS011;10754;51.106;7.164;2023-04-09T10:08:05;4.70;;;4.30;;
21192;SDS011;10754;51.106;7.164;2023-04-09T10:10:31;5.28;;;4.80;;
21192;SDS011;10754;51.106;7.164;2023-04-09T10:12:58;5.38;;;4.70;;
21192;SDS011;10754;51.106;7.164;2023-04-09T10:15:24;4.95;;;4.53;;
21192;SDS011;10754;51.106;7.164;2023-04-09T10:17:52;4.68;;;4.28;;
21192;SDS011;10754;51.106;7.164;2023-04-09T10:20:22;5.03;;;4.63;;
21192;SDS011;10754;51.106;7.164;2023-04-09T10:22:52;5.25;;;4.75;;
21192;SDS011;10754;51.106;7.164;2023-04-09T10:25:19;4.85;;;4.38;;
21192;SDS011;10754;51.106;7.164;2023-04-09T10:27:44;5.10;;;4.60;;
21192;SDS011;10754;51.106;7.164;2023-04-09T10:33:07;5.20;;;4.70;;
21192;SDS011;10754;51.106;7.164;2023-04-09T10:35:40;4.82;;;4.43;;
21192;SDS011;10754;51.106;7.164;2023-04-09T10:38:08;5.47;;;4.97;;
21192;SDS011;10754;51.106;7.164;2023-04-09T10:40:37;4.95;;;4.55;;
21192;SDS011;10754;51.106;7.164;2023-04-09T10:43:16;4.88;;;4.47;;
21192;SDS011;10754;51.106;7.164;2023-04-09T10:45:43;5.70;;;5.20;;
21192;SDS011;10754;51.106;7.164;2023-04-09T10:48:12;4.85;;;4.45;;
21192;SDS011;10754;51.106;7.164;2023-04-09T10:50:38;4.97;;;4.57;;
21192;SDS011;10754;51.106;7.164;2023-04-09T10:53:06;4.72;;;4.32;;
21192;SDS011;10754;51.106;7.164;2023-04-09T10:55:47;5.05;;;4.55;;
21192;SDS011;10754;51.106;7.164;2023-04-09T10:58:14;4.70;;;4.30;;
21192;SDS011;10754;51.106;7.164;2023-04-09T11:00:40;4.68;;;4.25;;
21192;SDS011;10754;51.106;7.164;2023-04-09T11:05:33;4.45;;;4.05;;
21192;SDS011;10754;51.106;7.164;2023-04-09T11:08:06;4.68;;;4.28;;
21192;SDS011;10754;51.106;7.164;2023-04-09T11:10:36;4.70;;;4.30;;
21192;SDS011;10754;51.106;7.164;2023-04-09T11:13:04;4.97;;;4.50;;
21192;SDS011;10754;51.106;7.164;2023-04-09T11:15:30;5.07;;;4.68;;
21192;SDS011;10754;51.106;7.164;2023-04-09T11:17:58;5.07;;;4.63;;
21192;SDS011;10754;51.106;7.164;2023-04-09T11:20:24;5.47;;;4.80;;
21192;SDS011;10754;51.106;7.164;2023-04-09T11:22:51;5.00;;;4.60;;
21192;SDS011;10754;51.106;7.164;2023-04-09T11:25:18;5.53;;;5.03;;
21192;SDS011;10754;51.106;7.164;2023-04-09T11:27:51;5.78;;;5.28;;
21192;SDS011;10754;51.106;7.164;2023-04-09T11:30:17;5.00;;;4.60;;
21192;SDS011;10754;51.106;7.164;2023-04-09T11:32:44;5.60;;;5.10;;
21192;SDS011;10754;51.106;7.164;2023-04-09T11:35:13;4.72;;;4.32;;
21192;SDS011;10754;51.106;7.164;2023-04-09T11:37:40;4.20;;;3.80;;
21192;SDS011;10754;51.106;7.164;2023-04-09T11:40:28;4.43;;;4.03;;
21192;SDS011;10754;51.106;7.164;2023-04-09T11:42:53;4.43;;;4.03;;
21192;SDS011;10754;51.106;7.164;2023-04-09T11:45:21;4.63;;;4.22;;
21192;SDS011;10754;51.106;7.164;2023-04-09T11:47:48;4.00;;;3.70;;
21192;SDS011;10754;51.106;7.164;2023-04-09T11:50:14;4.80;;;4.40;;
21192;SDS011;10754;51.106;7.164;2023-04-09T11:52:40;4.55;;;4.15;;
21192;SDS011;10754;51.106;7.164;2023-04-09T11:55:07;4.93;;;4.53;;
21192;SDS011;10754;51.106;7.164;2023-04-09T11:57:41;4.05;;;3.75;;
21192;SDS011;10754;51.106;7.164;2023-04-09T12:00:12;4.70;;;4.30;;
21192;SDS011;10754;51.106;7.164;2023-04-09T12:02:46;4.90;;;4.50;;
21192;SDS011;10754;51.106;7.164;2023-04-09T12:05:25;4.40;;;4.00;;
21192;SDS011;10754;51.106;7.164;2023-04-09T12:08:00;4.65;;;4.25;;
21192;SDS011;10754;51.106;7.164;2023-04-09T12:10:28;4.47;;;4.07;;
21192;SDS011;10754;51.106;7.164;2023-04-09T12:12:59;4.13;;;3.75;;
21192;SDS011;10754;51.106;7.164;2023-04-09T12:15:29;4.25;;;3.95;;
21192;SDS011;10754;51.106;7.164;2023-04-09T12:17:56;4.18;;;3.83;;
21192;SDS011;10754;51.106;7.164;2023-04-09T12:20:26;3.75;;;3.45;;
21192;SDS011;10754;51.106;7.164;2023-04-09T12:22:53;3.53;;;3.22;;
21192;SDS011;10754;51.106;7.164;2023-04-09T12:25:19;3.50;;;3.20;;
21192;SDS011;10754;51.106;7.164;2023-04-09T12:27:44;3.63;;;3.33;;
21192;SDS011;10754;51.106;7.164;2023-04-09T12:30:10;3.70;;;3.40;;
21192;SDS011;10754;51.106;7.164;2023-04-09T12:32:36;2.95;;;2.60;;
21192;SDS011;10754;51.106;7.164;2023-04-09T12:35:02;3.30;;;3.00;;
21192;SDS011;10754;51.106;7.164;2023-04-09T12:37:28;3.20;;;2.90;;
21192;SDS011;10754;51.106;7.164;2023-04-09T12:39:54;2.95;;;2.75;;
21192;SDS011;10754;51.106;7.164;2023-04-09T12:42:20;3.28;;;2.97;;
21192;SDS011;10754;51.106;7.164;2023-04-09T12:44:45;2.78;;;2.58;;
21192;SDS011;10754;51.106;7.164;2023-04-09T12:47:11;2.80;;;2.60;;
21192;SDS011;10754;51.106;7.164;2023-04-09T12:49:37;2.88;;;2.67;;
21192;SDS011;10754;51.106;7.164;2023-04-09T12:52:03;2.53;;;2.33;;
21192;SDS011;10754;51.106;7.164;2023-04-09T12:54:28;3.10;;;2.90;;
21192;SDS011;10754;51.106;7.164;2023-04-09T12:56:54;3.30;;;3.00;;
21192;SDS011;10754;51.106;7.164;2023-04-09T12:59:19;2.70;;;2.50;;
21192;SDS011;10754;51.106;7.164;2023-04-09T13:01:45;3.15;;;2.95;;
21192;SDS011;10754;51.106;7.164;2023-04-09T13:04:10;2.80;;;2.60;;
21192;SDS011;10754;51.106;7.164;2023-04-09T13:06:36;2.72;;;2.53;;
21192;SDS011;10754;51.106;7.164;2023-04-09T13:09:01;2.72;;;2.53;;
21192;SDS011;10754;51.106;7.164;2023-04-09T13:11:27;3.17;;;2.97;;
21192;SDS011;10754;51.106;7.164;2023-04-09T13:13:52;2.80;;;2.60;;
21192;SDS011;10754;51.106;7.164;2023-04-09T13:16:18;3.03;;;2.80;;
21192;SDS011;10754;51.106;7.164;2023-04-09T13:18:43;2.70;;;2.50;;
21192;SDS011;10754;51.106;7.164;2023-04-09T13:21:09;2.72;;;2.50;;
21192;SDS011;10754;51.106;7.164;2023-04-09T13:23:35;2.88;;;2.67;;
21192;SDS011;10754;51.106;7.164;2023-04-09T13:26:00;2.63;;;2.42;;
21192;SDS011;10754;51.106;7.164;2023-04-09T13:28:26;2.78;;;2.58;;
21192;SDS011;10754;51.106;7.164;2023-04-09T13:30:51;3.00;;;2.80;;
21192;SDS011;10754;51.106;7.164;2023-04-09T13:33:17;2.88;;;2.67;;
21192;SDS011;10754;51.106;7.164;2023-04-09T13:35:42;2.70;;;2.50;;
21192;SDS011;10754;51.106;7.164;2023-04-09T13:38:08;2.78;;;2.58;;
21192;SDS011;10754;51.106;7.164;2023-04-09T13:40:33;3.33;;;3.03;;
21192;SDS011;10754;51.106;7.164;2023-04-09T13:42:59;3.17;;;2.83;;
21192;SDS011;10754;51.106;7.164;2023-04-09T13:45:25;3.50;;;3.20;;
21192;SDS011;10754;51.106;7.164;2023-04-09T13:47:50;3.60;;;2.92;;
21192;SDS011;10754;51.106;7.164;2023-04-09T13:50:16;2.70;;;2.50;;
21192;SDS011;10754;51.106;7.164;2023-04-09T13:52:41;2.85;;;2.55;;
21192;SDS011;10754;51.106;7.164;2023-04-09T13:55:07;2.78;;;2.55;;
21192;SDS011;10754;51.106;7.164;2023-04-09T13:57:33;3.38;;;3.10;;
21192;SDS011;10754;51.106;7.164;2023-04-09T13:59:58;2.70;;;2.50;;
21192;SDS011;10754;51.106;7.164;2023-04-09T14:02:27;3.85;;;2.90;;
21192;SDS011;10754;51.106;7.164;2023-04-09T14:04:53;2.85;;;2.65;;
21192;SDS011;10754;51.106;7.164;2023-04-09T14:07:19;3.40;;;2.50;;
21192;SDS011;10754;51.106;7.164;2023-04-09T14:09:44;2.80;;;2.50;;
21192;SDS011;10754;51.106;7.164;2023-04-09T14:12:10;3.15;;;2.85;;
21192;SDS011;10754;51.106;7.164;2023-04-09T14:14:36;2.90;;;2.70;;
21192;SDS011;10754;51.106;7.164;2023-04-09T14:17:01;3.20;;;3.00;;
21192;SDS011;10754;51.106;7.164;2023-04-09T14:19:26;3.33;;;3.03;;
21192;SDS011;10754;51.106;7.164;2023-04-09T14:21:53;4.25;;;2.90;;
21192;SDS011;10754;51.106;7.164;2023-04-09T14:24:19;2.70;;;2.50;;
21192;SDS011;10754;51.106;7.164;2023-04-09T14:26:47;2.67;;;2.47;;
21192;SDS011;10754;51.106;7.164;2023-04-09T14:29:13;2.95;;;2.72;;
21192;SDS011;10754;51.106;7.164;2023-04-09T14:31:38;4.28;;;3.33;;
21192;SDS011;10754;51.106;7.164;2023-04-09T14:34:06;3.40;;;3.10;;
21192;SDS011;10754;51.106;7.164;2023-04-09T14:36:32;2.97;;;2.78;;
21192;SDS011;10754;51.106;7.164;2023-04-09T14:38:57;3.08;;;2.80;;
21192;SDS011;10754;51.106;7.164;2023-04-09T14:41:23;3.20;;;2.90;;
21192;SDS011;10754;51.106;7.164;2023-04-09T14:43:49;3.42;;;3.20;;
21192;SDS011;10754;51.106;7.164;2023-04-09T14:46:15;3.72;;;3.42;;
21192;SDS011;10754;51.106;7.164;2023-04-09T14:48:40;3.70;;;2.70;;
21192;SDS011;10754;51.106;7.164;2023-04-09T14:51:08;3.55;;;3.25;;
21192;SDS011;10754;51.106;7.164;2023-04-09T14:53:34;3.65;;;3.35;;